Time;durP1;ratioP1;P1;durP2;ratioP2;P2;SDS_P1;SDS_P2;PMS_P1;PMS_P2;Temp;Humidity;BMP_temperature;BMP_pressure;BME280_temperature;BME280_humidity;BME280_pressure;Samples;Min_cycle;Max_cycle;Signal;HPM_P1;HPM_P2
2023/01/23 00:00:26;;;;;;;;;;;-4.10;99.90;;;;;;5059130;28;19913;-79
2023/01/23 00:02:52;;;;;;;;;;;-4.10;99.90;;;;;;5057742;28;19909;-79
2023/01/23 00:05:18;;;;;;;;;;;-4.10;99.90;;;;;;5059500;28;19909;-79
2023/01/23 00:07:43;;;;;;;;;;;-4.10;99.90;;;;;;5058917;28;19913;-79
2023/01/23 00:10:09;;;;;;;;;;;-4.10;99.90;;;;;;5059388;28;19966;-79
2023/01/23 00:12:35;;;;;;;;;;;-4.10;99.90;;;;;;5059839;28;20262;-79
2023/01/23 00:15:00;;;;;;;;;;;-4.20;99.90;;;;;;5058739;28;19943;-79
2023/01/23 00:17:26;;;;;;;;;;;-4.20;99.90;;;;;;5058649;28;19935;-79
2023/01/23 00:19:52;;;;;;;;;;;-4.20;99.90;;;;;;5040475;28;19912;-79
2023/01/23 00:22:18;;;;;;;;;;;-4.20;99.90;;;;;;5069283;28;19948;-79
2023/01/23 00:24:44;;;;;;;;;;;-4.30;99.90;;;;;;5060618;28;19952;-79
2023/01/23 00:27:09;;;;;;;;;;;-4.30;99.90;;;;;;5059095;28;19920;-79
2023/01/23 00:29:35;;;;;;;;;;;-4.30;99.90;;;;;;5058637;28;20335;-79
2023/01/23 00:32:00;;;;;;;;;;;-4.30;99.90;;;;;;5058090;28;19916;-79
2023/01/23 00:34:26;;;;;;;;;;;-4.30;99.90;;;;;;5059018;28;19928;-79
2023/01/23 00:36:52;;;;;;;;;;;-4.40;99.90;;;;;;5058775;28;19939;-79
2023/01/23 00:39:19;;;;;;;;;;;-4.40;99.90;;;;;;5058527;28;19912;-79
2023/01/23 00:41:45;;;;;;;;;;;-4.40;99.90;;;;;;5058157;28;20007;-79
2023/01/23 00:44:11;;;;;;;;;;;-4.40;99.90;;;;;;5065090;28;19912;-79
2023/01/23 00:46:36;;;;;;;;;;;-4.50;99.90;;;;;;5064544;28;19956;-79
2023/01/23 00:49:02;;;;;;;;;;;-4.50;99.90;;;;;;5065422;28;20206;-79
2023/01/23 00:51:28;;;;;;;;;;;-4.60;99.90;;;;;;5065337;28;19931;-79
2023/01/23 00:53:53;;;;;;;;;;;-4.60;99.90;;;;;;5065772;28;19919;-79
2023/01/23 00:56:19;;;;;;;;;;;-4.60;99.90;;;;;;5064922;28;19958;-79
2023/01/23 00:58:45;;;;;;;;;;;-4.70;99.90;;;;;;5064312;28;19959;-79
2023/01/23 01:01:10;;;;;;;;;;;-4.80;99.90;;;;;;5064378;28;19912;-79
2023/01/23 01:03:36;;;;;;;;;;;-4.80;99.90;;;;;;5064134;28;19913;-79
2023/01/23 01:06:02;;;;;;;;;;;-4.80;99.90;;;;;;5065263;28;19916;-79
2023/01/23 01:08:28;;;;;;;;;;;-4.80;99.90;;;;;;5066259;28;19970;-79
2023/01/23 01:10:53;;;;;;;;;;;-4.90;99.90;;;;;;5065167;28;19954;-79
2023/01/23 01:13:20;;;;;;;;;;;-5.00;99.90;;;;;;5065139;28;20380;-79
2023/01/23 01:15:49;;;;;;;;;;;-5.00;99.90;;;;;;5062824;28;20387;-79
2023/01/23 01:18:14;;;;;;;;;;;-5.00;99.90;;;;;;5058172;28;20343;-79
2023/01/23 01:20:40;;;;;;;;;;;-5.00;99.90;;;;;;5058572;28;19955;-79
2023/01/23 01:23:06;;;;;;;;;;;-4.90;99.90;;;;;;5058112;28;20038;-79
2023/01/23 01:25:31;;;;;;;;;;;-4.90;99.90;;;;;;5058361;28;20377;-79
2023/01/23 01:27:57;;;;;;;;;;;-4.90;99.90;;;;;;5057284;28;19922;-79
2023/01/23 01:30:25;;;;;;;;;;;-4.90;99.90;;;;;;5057308;28;20047;-79
2023/01/23 01:32:52;;;;;;;;;;;-4.90;99.90;;;;;;5058476;28;19919;-79
2023/01/23 01:35:17;;;;;;;;;;;-4.90;99.90;;;;;;5058600;28;20009;-79
2023/01/23 01:37:43;;;;;;;;;;;-4.90;99.90;;;;;;5057709;28;19948;-79
2023/01/23 01:40:12;;;;;;;;;;;-4.90;99.90;;;;;;5057832;28;19912;-79
2023/01/23 01:42:46;;;;;;;;;;;-4.90;99.90;;;;;;5058778;28;20365;-79
2023/01/23 01:45:30;;;;;;;;;;;-4.90;99.90;;;;;;5061997;28;19955;-79
2023/01/23 01:47:55;;;;;;;;;;;-4.90;99.90;;;;;;5057451;28;19919;-79
2023/01/23 01:50:21;;;;;;;;;;;-4.90;99.90;;;;;;5058066;28;20355;-79
2023/01/23 01:52:47;;;;;;;;;;;-4.90;99.90;;;;;;5056402;28;19928;-79
2023/01/23 01:55:13;;;;;;;;;;;-4.90;99.90;;;;;;5057918;28;19920;-79
2023/01/23 01:57:40;;;;;;;;;;;-5.00;99.90;;;;;;5056118;28;19909;-79
2023/01/23 02:00:07;;;;;;;;;;;-5.00;99.90;;;;;;5057504;28;19909;-79
2023/01/23 02:02:37;;;;;;;;;;;-5.10;99.90;;;;;;5055842;28;19919;-79
2023/01/23 02:05:06;;;;;;;;;;;-5.10;99.90;;;;;;5056559;28;19909;-79
2023/01/23 02:07:34;;;;;;;;;;;-5.20;99.90;;;;;;5057924;28;19959;-79
2023/01/23 02:10:01;;;;;;;;;;;-5.20;99.90;;;;;;5057492;28;20392;-79
2023/01/23 02:12:27;;;;;;;;;;;-5.30;99.90;;;;;;5056595;28;19913;-79
2023/01/23 02:14:53;;;;;;;;;;;-5.30;99.90;;;;;;5056055;28;19947;-79
2023/01/23 02:17:18;;;;;;;;;;;-5.40;99.90;;;;;;5056934;28;20307;-78
2023/01/23 02:19:53;;;;;;;;;;;-5.40;99.90;;;;;;5057328;28;19951;-79
2023/01/23 02:22:34;;;;;;;;;;;-5.40;99.90;;;;;;5057847;28;20340;-79
2023/01/23 02:25:02;;;;;;;;;;;-5.50;99.90;;;;;;5055875;28;20352;-79
2023/01/23 02:27:28;;;;;;;;;;;-5.50;99.90;;;;;;5060501;28;19916;-79
2023/01/23 02:29:55;;;;;;;;;;;-5.40;99.90;;;;;;5068917;28;19920;-79
2023/01/23 02:32:23;;;;;;;;;;;-5.40;99.90;;;;;;5071094;28;19940;-77
2023/01/23 02:34:50;;;;;;;;;;;-5.40;99.90;;;;;;5071067;28;19909;-79
2023/01/23 02:37:16;;;;;;;;;;;-5.40;99.90;;;;;;5068292;28;19913;-79
2023/01/23 02:39:42;;;;;;;;;;;-5.40;99.90;;;;;;5071252;28;19963;-79
2023/01/23 02:42:08;;;;;;;;;;;-5.40;99.90;;;;;;5070741;28;19912;-79
2023/01/23 02:44:33;;;;;;;;;;;-5.40;99.90;;;;;;5069654;28;19909;-79
2023/01/23 02:47:01;;;;;;;;;;;-5.40;99.90;;;;;;5070656;28;19913;-79
2023/01/23 02:49:27;;;;;;;;;;;-5.40;99.90;;;;;;5062592;28;19931;-79
2023/01/23 02:51:53;;;;;;;;;;;-5.40;99.90;;;;;;5059828;28;19950;-79
2023/01/23 02:54:19;;;;;;;;;;;-5.40;99.90;;;;;;5060676;28;19909;-79
2023/01/23 02:56:45;;;;;;;;;;;-5.40;99.90;;;;;;5060229;28;19944;-79
2023/01/23 03:01:54;;;;;;;;;;;-5.40;99.90;;;;;;5060217;28;20008;-79
2023/01/23 03:04:20;;;;;;;;;;;-5.50;99.90;;;;;;5059564;28;19944;-79
2023/01/23 03:06:46;;;;;;;;;;;-5.40;99.90;;;;;;5059638;28;19909;-79
2023/01/23 03:09:13;;;;;;;;;;;-5.50;99.90;;;;;;5059851;28;19912;-79
2023/01/23 03:11:40;;;;;;;;;;;-5.60;99.90;;;;;;5059299;28;19909;-79
2023/01/23 03:14:07;;;;;;;;;;;-5.60;99.90;;;;;;5059129;28;19919;-79
2023/01/23 03:16:33;;;;;;;;;;;-5.60;99.90;;;;;;5059256;28;19909;-79
2023/01/23 03:19:03;;;;;;;;;;;-5.60;99.90;;;;;;5058553;28;20352;-78
2023/01/23 03:21:30;;;;;;;;;;;-5.60;99.90;;;;;;5059595;28;20291;-79
2023/01/23 03:23:55;;;;;;;;;;;-5.50;99.90;;;;;;5041091;28;19983;-76
2023/01/23 03:26:21;;;;;;;;;;;-5.50;99.90;;;;;;5055350;28;19963;-75
2023/01/23 03:31:31;;;;;;;;;;;-5.50;99.90;;;;;;5056091;28;19996;-75
2023/01/23 03:33:56;;;;;;;;;;;-5.50;99.90;;;;;;5036577;28;20011;-75
2023/01/23 03:36:22;;;;;;;;;;;-5.50;99.90;;;;;;5054935;28;19959;-75
2023/01/23 03:41:31;;;;;;;;;;;-5.40;99.90;;;;;;5055776;28;20423;-75
2023/01/23 03:43:57;;;;;;;;;;;-5.50;99.90;;;;;;5053717;28;19909;-75
2023/01/23 03:46:22;;;;;;;;;;;-5.50;99.90;;;;;;5037333;28;19958;-75
2023/01/23 03:48:48;;;;;;;;;;;-5.50;99.90;;;;;;5054750;28;19962;-75
2023/01/23 03:51:13;;;;;;;;;;;-5.50;99.90;;;;;;5055121;28;19951;-76
2023/01/23 03:53:39;;;;;;;;;;;-5.50;99.90;;;;;;5054993;28;19912;-75
2023/01/23 03:56:05;;;;;;;;;;;-5.50;99.90;;;;;;5055290;28;19979;-75
2023/01/23 03:58:31;;;;;;;;;;;-5.50;99.90;;;;;;5054993;28;19993;-76
2023/01/23 04:00:56;;;;;;;;;;;-5.50;99.90;;;;;;5055134;28;19916;-75
2023/01/23 04:03:22;;;;;;;;;;;-5.50;99.90;;;;;;5054590;28;19909;-75
2023/01/23 04:05:47;;;;;;;;;;;-5.50;99.90;;;;;;5055134;28;19947;-75
2023/01/23 04:08:13;;;;;;;;;;;-5.50;99.90;;;;;;5053811;28;19955;-75
2023/01/23 04:10:39;;;;;;;;;;;-5.40;99.90;;;;;;5055008;28;20015;-75
2023/01/23 04:13:04;;;;;;;;;;;-5.50;99.90;;;;;;5055415;28;20004;-75
2023/01/23 04:15:33;;;;;;;;;;;-5.50;99.90;;;;;;5055684;28;19920;-75
2023/01/23 04:17:58;;;;;;;;;;;-5.50;99.90;;;;;;5036194;28;20296;-75
2023/01/23 04:20:24;;;;;;;;;;;-5.50;99.90;;;;;;5035461;28;19913;-75
2023/01/23 04:22:49;;;;;;;;;;;-5.50;99.90;;;;;;5034891;28;19920;-75
2023/01/23 04:25:15;;;;;;;;;;;-5.60;99.90;;;;;;5035106;28;19966;-75
2023/01/23 04:27:41;;;;;;;;;;;-5.60;99.90;;;;;;5035184;28;19956;-75
2023/01/23 04:30:07;;;;;;;;;;;-5.60;99.90;;;;;;5016310;28;19921;-75
2023/01/23 04:32:32;;;;;;;;;;;-5.60;99.90;;;;;;5034288;28;19917;-75
2023/01/23 04:34:58;;;;;;;;;;;-5.60;99.90;;;;;;5033517;28;20440;-76
2023/01/23 04:37:23;;;;;;;;;;;-5.60;99.90;;;;;;5034088;28;19924;-75
2023/01/23 04:39:49;;;;;;;;;;;-5.60;99.90;;;;;;5034239;28;19920;-75
2023/01/23 04:42:14;;;;;;;;;;;-5.60;99.90;;;;;;5032880;28;19968;-75
2023/01/23 04:44:40;;;;;;;;;;;-5.70;99.90;;;;;;5034348;28;19909;-75
2023/01/23 04:47:06;;;;;;;;;;;-5.70;99.90;;;;;;5045325;28;19912;-75
2023/01/23 04:49:31;;;;;;;;;;;-5.70;99.90;;;;;;5036789;28;19917;-76
2023/01/23 04:51:57;;;;;;;;;;;-5.70;99.90;;;;;;5033959;28;19917;-75
2023/01/23 04:54:22;;;;;;;;;;;-5.60;99.90;;;;;;5034626;28;19917;-75
2023/01/23 04:56:48;;;;;;;;;;;-5.60;99.90;;;;;;5049228;28;19921;-75
2023/01/23 04:59:15;;;;;;;;;;;-5.70;99.90;;;;;;5034180;28;20385;-75
2023/01/23 05:01:41;;;;;;;;;;;-5.70;99.90;;;;;;5034201;28;19913;-75
2023/01/23 05:04:07;;;;;;;;;;;-5.70;99.90;;;;;;5042462;28;19916;-75
2023/01/23 05:06:32;;;;;;;;;;;-5.70;99.90;;;;;;5052654;28;19916;-75
2023/01/23 05:08:58;;;;;;;;;;;-5.70;99.90;;;;;;5052299;28;20269;-75
2023/01/23 05:11:23;;;;;;;;;;;-5.70;99.90;;;;;;5053653;28;19909;-75
2023/01/23 05:13:51;;;;;;;;;;;-5.70;99.90;;;;;;5035256;28;21888;-75
2023/01/23 05:16:16;;;;;;;;;;;-5.70;99.90;;;;;;5052231;28;19920;-75
2023/01/23 05:18:42;;;;;;;;;;;-5.70;99.90;;;;;;5036534;28;19913;-75
2023/01/23 05:21:08;;;;;;;;;;;-5.70;99.90;;;;;;5054571;28;19937;-75
2023/01/23 05:23:33;;;;;;;;;;;-5.70;99.90;;;;;;5054358;28;19912;-75
2023/01/23 05:25:59;;;;;;;;;;;-5.70;99.90;;;;;;5054398;28;19909;-75
2023/01/23 05:28:24;;;;;;;;;;;-5.70;99.90;;;;;;5053214;28;19956;-75
2023/01/23 05:30:50;;;;;;;;;;;-5.70;99.90;;;;;;5054780;28;19913;-76
2023/01/23 05:33:15;;;;;;;;;;;-5.80;99.90;;;;;;5054590;28;19921;-75
2023/01/23 05:35:41;;;;;;;;;;;-5.80;99.90;;;;;;5055019;28;19908;-75
2023/01/23 05:38:07;;;;;;;;;;;-5.80;99.90;;;;;;5052888;28;19913;-76
2023/01/23 05:40:32;;;;;;;;;;;-5.80;99.90;;;;;;5055930;28;19913;-75
2023/01/23 05:42:58;;;;;;;;;;;-5.80;99.90;;;;;;5053871;28;20369;-75
2023/01/23 05:45:23;;;;;;;;;;;-5.70;99.90;;;;;;5053114;28;19913;-76
2023/01/23 05:47:49;;;;;;;;;;;-5.70;99.90;;;;;;5052700;28;19963;-76
2023/01/23 05:50:16;;;;;;;;;;;-5.70;99.90;;;;;;5070143;28;20504;-75
2023/01/23 05:52:42;;;;;;;;;;;-5.70;99.90;;;;;;5054689;28;19913;-75
2023/01/23 05:55:08;;;;;;;;;;;-5.80;99.90;;;;;;5053444;28;20008;-76
2023/01/23 05:57:34;;;;;;;;;;;-5.80;99.90;;;;;;5055089;28;19971;-75
2023/01/23 05:59:59;;;;;;;;;;;-5.80;99.90;;;;;;5058753;28;20349;-75
2023/01/23 06:02:25;;;;;;;;;;;-5.90;99.90;;;;;;5057909;28;19913;-75
2023/01/23 06:04:51;;;;;;;;;;;-5.90;99.90;;;;;;5057854;28;19909;-75
2023/01/23 06:07:17;;;;;;;;;;;-6.00;99.90;;;;;;5073806;28;19920;-75
2023/01/23 06:09:43;;;;;;;;;;;-6.10;99.90;;;;;;5057873;28;19909;-75
2023/01/23 06:12:08;;;;;;;;;;;-6.10;99.90;;;;;;5056224;28;20066;-75
2023/01/23 06:14:34;;;;;;;;;;;-6.10;99.90;;;;;;5056486;28;20284;-75
2023/01/23 06:17:00;;;;;;;;;;;-6.10;99.90;;;;;;5056363;28;19909;-75
2023/01/23 06:19:26;;;;;;;;;;;-6.10;99.90;;;;;;5057616;28;19917;-75
2023/01/23 06:21:51;;;;;;;;;;;-6.10;99.90;;;;;;5057675;28;19975;-75
2023/01/23 06:24:17;;;;;;;;;;;-6.10;99.90;;;;;;5057973;28;19913;-75
2023/01/23 06:26:42;;;;;;;;;;;-6.00;99.90;;;;;;5057218;28;19920;-75
2023/01/23 06:29:08;;;;;;;;;;;-6.00;99.90;;;;;;5056084;28;19925;-75
2023/01/23 06:31:33;;;;;;;;;;;-5.90;99.90;;;;;;5057061;28;19909;-75
2023/01/23 06:33:59;;;;;;;;;;;-5.90;99.90;;;;;;5055559;28;20388;-76
2023/01/23 06:36:25;;;;;;;;;;;-5.80;99.90;;;;;;5056935;28;20431;-76
2023/01/23 06:38:50;;;;;;;;;;;-5.80;99.90;;;;;;5057054;28;19913;-75
2023/01/23 06:41:16;;;;;;;;;;;-5.80;99.90;;;;;;5055602;28;20479;-75
2023/01/23 06:43:41;;;;;;;;;;;-5.90;99.90;;;;;;5055863;28;20376;-75
2023/01/23 06:46:08;;;;;;;;;;;-5.90;99.90;;;;;;5057135;28;19913;-75
2023/01/23 06:48:34;;;;;;;;;;;-5.90;99.90;;;;;;5055293;28;19908;-75
2023/01/23 06:50:59;;;;;;;;;;;-5.90;99.90;;;;;;5057140;28;19913;-75
2023/01/23 06:53:26;;;;;;;;;;;-5.90;99.90;;;;;;5060622;28;19964;-75
2023/01/23 06:55:51;;;;;;;;;;;-5.90;99.90;;;;;;5058544;28;19913;-75
2023/01/23 06:58:17;;;;;;;;;;;-6.00;99.90;;;;;;5056536;28;19909;-76
2023/01/23 07:00:43;;;;;;;;;;;-6.00;99.90;;;;;;5056508;28;19952;-75
2023/01/23 07:03:12;;;;;;;;;;;-6.00;99.90;;;;;;5055056;28;20007;-76
2023/01/23 07:05:39;;;;;;;;;;;-6.10;99.90;;;;;;5038449;28;19916;-75
2023/01/23 07:08:06;;;;;;;;;;;-6.00;99.90;;;;;;5055556;28;19942;-75
2023/01/23 07:10:31;;;;;;;;;;;-6.00;99.90;;;;;;5055136;28;19936;-75
2023/01/23 07:12:57;;;;;;;;;;;-6.00;99.90;;;;;;5056140;28;20357;-75
2023/01/23 07:15:22;;;;;;;;;;;-6.00;99.90;;;;;;5055158;28;20031;-75
2023/01/23 07:17:48;;;;;;;;;;;-6.00;99.90;;;;;;5046166;28;19913;-76
2023/01/23 07:20:14;;;;;;;;;;;-6.10;99.90;;;;;;5035945;28;19913;-75
2023/01/23 07:22:40;;;;;;;;;;;-6.10;99.90;;;;;;5036766;28;19959;-75
2023/01/23 07:25:06;;;;;;;;;;;-6.10;99.90;;;;;;5036458;28;19956;-75
2023/01/23 07:27:32;;;;;;;;;;;-6.20;99.90;;;;;;5035637;28;20007;-75
2023/01/23 07:29:57;;;;;;;;;;;-6.20;99.90;;;;;;5036528;28;20454;-75
2023/01/23 07:32:23;;;;;;;;;;;-6.10;99.90;;;;;;5036235;28;20019;-75
2023/01/23 07:34:48;;;;;;;;;;;-6.10;99.90;;;;;;5036058;28;19910;-75
2023/01/23 07:37:14;;;;;;;;;;;-6.00;99.90;;;;;;5036207;28;20387;-76
2023/01/23 07:39:39;;;;;;;;;;;-5.90;99.90;;;;;;5036087;28;19913;-75
2023/01/23 07:42:05;;;;;;;;;;;-5.90;99.90;;;;;;5036530;28;19956;-75
2023/01/23 07:44:30;;;;;;;;;;;-5.80;99.90;;;;;;5034625;28;20289;-75
2023/01/23 07:46:56;;;;;;;;;;;-5.70;99.90;;;;;;5037762;28;19951;-75
2023/01/23 07:49:22;;;;;;;;;;;-5.70;99.90;;;;;;5054284;28;20381;-75
2023/01/23 07:51:47;;;;;;;;;;;-5.70;99.90;;;;;;5055757;28;19912;-75
2023/01/23 07:54:13;;;;;;;;;;;-5.70;99.90;;;;;;5055561;28;19913;-75
2023/01/23 07:56:38;;;;;;;;;;;-5.70;99.90;;;;;;5054388;28;20276;-75
2023/01/23 07:59:04;;;;;;;;;;;-5.70;99.90;;;;;;5054173;28;19912;-75
2023/01/23 08:01:29;;;;;;;;;;;-5.70;99.90;;;;;;5056067;28;19913;-74
2023/01/23 08:03:55;;;;;;;;;;;-5.70;99.90;;;;;;5053718;28;19923;-75
2023/01/23 08:06:21;;;;;;;;;;;-5.70;99.90;;;;;;5055549;28;20368;-75
2023/01/23 08:08:47;;;;;;;;;;;-5.70;99.90;;;;;;5055193;28;19931;-75
2023/01/23 08:11:12;;;;;;;;;;;-5.60;99.90;;;;;;5055207;28;20253;-75
2023/01/23 08:13:38;;;;;;;;;;;-5.60;99.90;;;;;;5053822;28;19917;-75
2023/01/23 08:16:04;;;;;;;;;;;-5.50;99.90;;;;;;5055094;28;19909;-75
2023/01/23 08:18:30;;;;;;;;;;;-5.50;99.90;;;;;;5037789;28;19914;-75
2023/01/23 08:20:57;;;;;;;;;;;-5.40;99.90;;;;;;5034513;28;20428;-75
2023/01/23 08:23:26;;;;;;;;;;;-5.40;99.90;;;;;;5035453;28;19913;-75
2023/01/23 08:25:52;;;;;;;;;;;-5.40;99.90;;;;;;5035090;28;19909;-75
2023/01/23 08:28:18;;;;;;;;;;;-5.20;99.90;;;;;;5035119;28;20369;-75
2023/01/23 08:30:43;;;;;;;;;;;-5.10;99.90;;;;;;5050821;28;19913;-75
2023/01/23 08:33:09;;;;;;;;;;;-5.00;99.90;;;;;;5035006;28;20377;-75
2023/01/23 08:35:36;;;;;;;;;;;-5.00;99.90;;;;;;5035077;28;19921;-75
2023/01/23 08:38:02;;;;;;;;;;;-5.00;99.90;;;;;;5035158;28;19913;-75
2023/01/23 08:40:28;;;;;;;;;;;-4.90;99.90;;;;;;5034185;28;20437;-75
2023/01/23 08:42:53;;;;;;;;;;;-4.90;99.90;;;;;;5035130;28;19949;-75
2023/01/23 08:45:19;;;;;;;;;;;-4.80;99.90;;;;;;5016934;28;19914;-75
2023/01/23 08:47:45;;;;;;;;;;;-4.80;99.90;;;;;;5043831;28;19967;-76
2023/01/23 08:50:10;;;;;;;;;;;-4.70;99.90;;;;;;5052993;28;19919;-77
2023/01/23 08:52:36;;;;;;;;;;;-4.70;99.90;;;;;;5054595;28;20389;-77
2023/01/23 08:55:02;;;;;;;;;;;-4.70;99.90;;;;;;5053940;28;19974;-77
2023/01/23 08:57:27;;;;;;;;;;;-4.70;99.90;;;;;;5054107;28;19909;-77
2023/01/23 08:59:53;;;;;;;;;;;-4.60;99.90;;;;;;5054355;28;19909;-75
2023/01/23 09:02:18;;;;;;;;;;;-4.60;99.90;;;;;;5053232;28;20331;-76
2023/01/23 09:04:45;;;;;;;;;;;-4.60;99.90;;;;;;5054735;28;19913;-75
2023/01/23 09:07:10;;;;;;;;;;;-4.50;99.90;;;;;;5054747;28;19920;-75
2023/01/23 09:09:36;;;;;;;;;;;-4.40;99.90;;;;;;5053016;28;19913;-75
2023/01/23 09:12:02;;;;;;;;;;;-4.40;99.90;;;;;;5054105;28;19908;-75
2023/01/23 09:14:27;;;;;;;;;;;-4.30;99.90;;;;;;5053021;28;20004;-75
2023/01/23 09:16:53;;;;;;;;;;;-4.30;99.90;;;;;;5052205;28;19913;-75
2023/01/23 09:19:18;;;;;;;;;;;-4.30;99.90;;;;;;5053031;28;19956;-75
2023/01/23 09:21:44;;;;;;;;;;;-4.20;99.90;;;;;;5036802;28;19912;-75
2023/01/23 09:24:09;;;;;;;;;;;-4.20;99.90;;;;;;5054547;28;19917;-75
2023/01/23 09:26:35;;;;;;;;;;;-4.20;99.90;;;;;;5053930;28;20021;-75
2023/01/23 09:29:00;;;;;;;;;;;-4.20;99.90;;;;;;5054468;28;20392;-83
2023/01/23 09:31:26;;;;;;;;;;;-4.10;99.90;;;;;;5054757;28;19913;-81
2023/01/23 09:33:51;;;;;;;;;;;-4.00;99.90;;;;;;5058597;28;19923;-75
2023/01/23 09:36:17;;;;;;;;;;;-4.00;99.90;;;;;;5058336;28;19913;-75
2023/01/23 09:38:43;;;;;;;;;;;-4.00;99.90;;;;;;5056847;28;20387;-75
2023/01/23 09:41:10;;;;;;;;;;;-4.00;99.90;;;;;;5057948;28;19913;-76
2023/01/23 09:43:39;;;;;;;;;;;-4.10;99.90;;;;;;5058131;28;19984;-75
2023/01/23 09:46:10;;;;;;;;;;;-4.10;99.90;;;;;;5058547;28;19909;-75
2023/01/23 09:48:42;;;;;;;;;;;-4.10;99.90;;;;;;5057713;28;20000;-79
2023/01/23 09:51:24;;;;;;;;;;;-4.10;99.90;;;;;;5058941;28;19909;-79
2023/01/23 09:53:51;;;;;;;;;;;-3.90;99.90;;;;;;5058407;28;19920;-79
2023/01/23 09:56:37;;;;;;;;;;;-3.80;99.90;;;;;;5058362;28;19927;-79
2023/01/23 09:59:21;;;;;;;;;;;-3.70;99.90;;;;;;5052239;28;19963;-79
2023/01/23 10:01:47;;;;;;;;;;;-3.70;99.90;;;;;;5058317;28;20347;-75
2023/01/23 10:04:14;;;;;;;;;;;-3.70;99.90;;;;;;5057441;28;19956;-76
2023/01/23 10:06:55;;;;;;;;;;;-3.80;99.90;;;;;;5057819;28;19909;-75
2023/01/23 10:09:30;;;;;;;;;;;-3.90;99.90;;;;;;5058847;28;19944;-76
2023/01/23 10:12:19;;;;;;;;;;;-3.90;99.90;;;;;;5057093;28;19912;-77
2023/01/23 10:14:47;;;;;;;;;;;-3.90;99.90;;;;;;5055866;28;19909;-77
2023/01/23 10:17:19;;;;;;;;;;;-3.90;99.90;;;;;;5057388;28;20387;-76
2023/01/23 10:20:01;;;;;;;;;;;-3.90;99.90;;;;;;5055861;28;20299;-83
2023/01/23 10:22:46;;;;;;;;;;;-3.90;99.90;;;;;;5055740;28;19909;-83
2023/01/23 10:25:16;;;;;;;;;;;-3.90;99.90;;;;;;5058397;28;19909;-82
2023/01/23 10:27:44;;;;;;;;;;;-3.90;99.90;;;;;;5057137;28;19931;-83
2023/01/23 10:30:16;;;;;;;;;;;-3.80;99.90;;;;;;5059196;28;19960;-76
2023/01/23 10:32:55;;;;;;;;;;;-3.80;99.90;;;;;;5057758;28;19912;-76
2023/01/23 10:35:28;;;;;;;;;;;-3.70;99.90;;;;;;5058280;28;19991;-75
2023/01/23 10:37:59;;;;;;;;;;;-3.70;99.90;;;;;;5057022;28;19909;-76
2023/01/23 10:43:13;;;;;;;;;;;-3.40;99.90;;;;;;5058165;28;19920;-76
2023/01/23 10:45:39;;;;;;;;;;;-3.30;99.90;;;;;;5058270;28;19958;-76
2023/01/23 10:48:24;;;;;;;;;;;-3.20;99.90;;;;;;5057863;28;19951;-76
2023/01/23 10:50:50;;;;;;;;;;;-3.10;99.90;;;;;;5056735;28;19912;-76
2023/01/23 10:53:18;;;;;;;;;;;-3.10;99.90;;;;;;5056135;28;19921;-76
2023/01/23 10:55:44;;;;;;;;;;;-2.90;99.90;;;;;;5057376;28;19916;-75
2023/01/23 10:58:27;;;;;;;;;;;-2.80;99.90;;;;;;5056512;28;19913;-76
2023/01/23 11:00:53;;;;;;;;;;;-2.70;99.90;;;;;;5055367;28;19920;-75
2023/01/23 11:03:19;;;;;;;;;;;-2.70;99.90;;;;;;5055770;28;19920;-75
2023/01/23 11:05:49;;;;;;;;;;;-2.70;99.90;;;;;;5056190;28;19963;-75
2023/01/23 11:08:24;;;;;;;;;;;-2.70;99.90;;;;;;5056801;28;19913;-77
2023/01/23 11:10:50;;;;;;;;;;;-2.70;99.90;;;;;;5056527;28;19908;-77
2023/01/23 11:13:28;;;;;;;;;;;-2.70;99.90;;;;;;5058055;28;20016;-77
2023/01/23 11:15:54;;;;;;;;;;;-2.80;99.90;;;;;;5058811;28;19951;-77
2023/01/23 11:18:33;;;;;;;;;;;-2.90;99.90;;;;;;5057008;28;19948;-77
2023/01/23 11:21:00;;;;;;;;;;;-3.00;99.90;;;;;;5057066;28;19909;-77
2023/01/23 11:23:25;;;;;;;;;;;-3.10;99.90;;;;;;5058563;28;19918;-80
2023/01/23 11:25:52;;;;;;;;;;;-3.20;99.90;;;;;;5058157;28;20249;-80
2023/01/23 11:28:22;;;;;;;;;;;-3.20;99.90;;;;;;5058317;28;20277;-79
2023/01/23 11:31:00;;;;;;;;;;;-3.20;99.90;;;;;;5058996;28;19937;-77
2023/01/23 11:33:40;;;;;;;;;;;-3.10;99.90;;;;;;5056731;28;19946;-77
2023/01/23 11:36:12;;;;;;;;;;;-3.10;99.90;;;;;;5057095;28;19920;-77
2023/01/23 11:38:43;;;;;;;;;;;-3.10;99.90;;;;;;5056608;28;19913;-77
2023/01/23 11:41:10;;;;;;;;;;;-3.00;99.90;;;;;;5057060;28;19962;-77
2023/01/23 11:43:36;;;;;;;;;;;-3.00;99.90;;;;;;5057550;28;19913;-84
2023/01/23 11:46:14;;;;;;;;;;;-2.90;99.90;;;;;;5058041;28;19991;-77
2023/01/23 11:48:49;;;;;;;;;;;-2.90;99.90;;;;;;5055986;28;19909;-77
2023/01/23 11:51:17;;;;;;;;;;;-3.00;99.90;;;;;;5056215;28;19908;-77
2023/01/23 11:53:46;;;;;;;;;;;-3.00;99.90;;;;;;5056088;28;20364;-77
2023/01/23 11:56:15;;;;;;;;;;;-2.90;99.90;;;;;;5055097;28;20001;-77
2023/01/23 11:58:49;;;;;;;;;;;-2.80;99.90;;;;;;5056213;28;20311;-77
2023/01/23 12:01:27;;;;;;;;;;;-2.80;99.90;;;;;;5055479;28;19909;-77
2023/01/23 12:03:58;;;;;;;;;;;-2.70;99.90;;;;;;5055467;28;20281;-77
2023/01/23 12:06:23;;;;;;;;;;;-2.70;99.90;;;;;;5055696;28;20387;-77
2023/01/23 12:08:54;;;;;;;;;;;-2.70;99.90;;;;;;5055933;28;19908;-77
2023/01/23 12:11:21;;;;;;;;;;;-2.70;99.90;;;;;;5055525;28;20381;-77
2023/01/23 12:14:05;;;;;;;;;;;-2.70;99.90;;;;;;5056882;28;19917;-77
2023/01/23 12:16:36;;;;;;;;;;;-2.70;99.90;;;;;;5055136;28;19909;-77
2023/01/23 12:19:15;;;;;;;;;;;-2.70;99.90;;;;;;5054947;28;20392;-77
2023/01/23 12:21:46;;;;;;;;;;;-2.70;99.90;;;;;;5055890;28;19959;-77
2023/01/23 12:24:17;;;;;;;;;;;-2.80;99.90;;;;;;5055692;28;19978;-77
2023/01/23 12:26:54;;;;;;;;;;;-2.70;99.90;;;;;;5055612;28;20379;-77
2023/01/23 12:29:38;;;;;;;;;;;-2.60;99.90;;;;;;5055283;28;19939;-77
2023/01/23 12:32:24;;;;;;;;;;;-2.50;99.90;;;;;;5055620;28;20296;-78
2023/01/23 12:34:59;;;;;;;;;;;-2.50;99.90;;;;;;5052229;28;20365;-77
2023/01/23 12:37:51;;;;;;;;;;;-2.50;99.90;;;;;;5055601;28;20319;-78
2023/01/23 12:40:21;;;;;;;;;;;-2.40;99.90;;;;;;5054886;28;19913;-78
2023/01/23 12:42:51;;;;;;;;;;;-2.10;99.90;;;;;;5054163;28;19913;-78
2023/01/23 12:45:21;;;;;;;;;;;-2.00;99.90;;;;;;5054675;28;19913;-78
2023/01/23 12:47:47;;;;;;;;;;;-1.70;99.90;;;;;;5056197;28;19916;-77
2023/01/23 12:50:16;;;;;;;;;;;-1.50;99.90;;;;;;5054210;28;19909;-78
2023/01/23 12:53:04;;;;;;;;;;;-1.40;99.90;;;;;;5055132;28;19972;-77
2023/01/23 12:55:45;;;;;;;;;;;-1.40;99.90;;;;;;5038203;28;19915;-77
2023/01/23 12:58:12;;;;;;;;;;;-1.40;99.90;;;;;;5055349;28;19916;-77
2023/01/23 13:00:44;;;;;;;;;;;-1.50;99.90;;;;;;5053511;28;19920;-77
2023/01/23 13:03:12;;;;;;;;;;;-1.40;99.90;;;;;;5056656;28;19948;-78
2023/01/23 13:05:46;;;;;;;;;;;-1.40;99.90;;;;;;5057747;28;19978;-77
2023/01/23 13:08:22;;;;;;;;;;;-1.30;99.90;;;;;;5055556;28;19999;-78
2023/01/23 13:13:38;;;;;;;;;;;-1.00;99.90;;;;;;5056912;28;19923;-75
2023/01/23 13:16:11;;;;;;;;;;;-0.90;99.90;;;;;;5055621;28;19917;-77
2023/01/23 13:27:28;;;;;;;;;;;-0.70;99.90;;;;;;5050935;28;20380;-78
2023/01/23 13:29:54;;;;;;;;;;;-0.60;99.90;;;;;;5054749;28;20381;-78
2023/01/23 13:32:21;;;;;;;;;;;-0.40;99.90;;;;;;5053711;28;19912;-78
2023/01/23 13:34:47;;;;;;;;;;;-0.30;99.90;;;;;;5054820;28;19909;-78
2023/01/23 13:37:39;;;;;;;;;;;-0.30;99.90;;;;;;5054418;28;19920;-78
2023/01/23 13:40:10;;;;;;;;;;;-0.30;99.90;;;;;;5048614;28;19923;-78
2023/01/23 13:42:36;;;;;;;;;;;-0.20;99.90;;;;;;5054103;28;19913;-78
2023/01/23 13:45:25;;;;;;;;;;;-0.20;99.90;;;;;;5054798;28;19913;-77
2023/01/23 13:50:58;;;;;;;;;;;-0.10;99.90;;;;;;5054208;28;19951;-78
2023/01/23 13:59:00;;;;;;;;;;;-0.20;99.90;;;;;;5034826;28;20432;-78
2023/01/23 14:07:41;;;;;;;;;;;-0.20;99.90;;;;;;5035527;28;20016;-77
2023/01/23 14:10:26;;;;;;;;;;;-0.20;99.90;;;;;;5040213;28;19928;-83
2023/01/23 14:13:01;;;;;;;;;;;-0.20;99.90;;;;;;5039454;28;19964;-83
2023/01/23 14:18:16;;;;;;;;;;;-0.10;99.90;;;;;;5038477;28;19919;-82
2023/01/23 14:20:42;;;;;;;;;;;-0.10;99.90;;;;;;5041801;28;19909;-80
2023/01/23 14:23:47;;;;;;;;;;;-0.20;99.90;;;;;;5042484;28;19909;-79
2023/01/23 14:26:16;;;;;;;;;;;-0.20;99.90;;;;;;4963708;29;20326;-79
2023/01/23 14:28:51;;;;;;;;;;;-0.30;99.90;;;;;;4964043;28;20458;-78
2023/01/23 14:31:33;;;;;;;;;;;-0.40;99.90;;;;;;5007033;28;19913;-80
2023/01/23 14:34:02;;;;;;;;;;;-0.40;99.90;;;;;;5042450;28;20471;-79
2023/01/23 14:36:29;;;;;;;;;;;-0.50;99.90;;;;;;5040338;28;19909;-82
2023/01/23 14:38:55;;;;;;;;;;;-0.50;99.90;;;;;;5046901;28;19949;-81
2023/01/23 14:41:23;;;;;;;;;;;-0.60;99.90;;;;;;5061600;28;19913;-81
2023/01/23 14:43:50;;;;;;;;;;;-0.60;99.90;;;;;;5062273;28;19916;-80
2023/01/23 14:46:18;;;;;;;;;;;-0.70;99.90;;;;;;5062056;28;19913;-80
2023/01/23 14:48:45;;;;;;;;;;;-0.80;99.90;;;;;;5061309;28;19988;-81
2023/01/23 14:51:16;;;;;;;;;;;-0.80;99.90;;;;;;5058712;28;19951;-81
2023/01/23 14:53:42;;;;;;;;;;;-0.90;99.90;;;;;;5059708;28;19913;-81
2023/01/23 14:56:10;;;;;;;;;;;-1.00;99.90;;;;;;5059705;28;20015;-81
2023/01/23 14:58:36;;;;;;;;;;;-1.00;99.90;;;;;;5058975;28;19913;-82
2023/01/23 15:01:02;;;;;;;;;;;-1.00;99.90;;;;;;5063434;28;19931;-81